sensor_id;sensor_type;location;lat;lon;timestamp;pressure;altitude;pressure_sealevel;temperature;humidity
76868;BME280;66168;45.478;11.060;2023-05-02T00:01:51;100534.30;;;14.07;72.88
76868;BME280;66168;45.478;11.060;2023-05-02T00:04:19;100531.29;;;14.05;72.72
76868;BME280;66168;45.478;11.060;2023-05-02T00:06:46;100541.23;;;14.04;72.48
76868;BME280;66168;45.478;11.060;2023-05-02T00:09:13;100536.78;;;14.05;72.19
76868;BME280;66168;45.478;11.060;2023-05-02T00:11:41;100537.02;;;14.07;72.25
76868;BME280;66168;45.478;11.060;2023-05-02T00:14:08;100525.01;;;14.09;72.23
76868;BME280;66168;45.478;11.060;2023-05-02T00:16:34;100514.20;;;14.14;72.27
76868;BME280;66168;45.478;11.060;2023-05-02T00:19:01;100501.66;;;14.16;72.02
76868;BME280;66168;45.478;11.060;2023-05-02T00:21:28;100498.73;;;14.16;71.89
76868;BME280;66168;45.478;11.060;2023-05-02T00:23:55;100488.99;;;14.17;71.69
76868;BME280;66168;45.478;11.060;2023-05-02T00:26:24;100484.75;;;14.17;71.68
76868;BME280;66168;45.478;11.060;2023-05-02T00:28:54;100478.72;;;14.18;71.86
76868;BME280;66168;45.478;11.060;2023-05-02T00:31:21;100477.52;;;14.18;72.02
76868;BME280;66168;45.478;11.060;2023-05-02T00:33:48;100463.48;;;14.18;72.02
76868;BME280;66168;45.478;11.060;2023-05-02T00:36:16;100460.61;;;14.20;72.26
76868;BME280;66168;45.478;11.060;2023-05-02T00:38:43;100448.34;;;14.20;72.22
76868;BME280;66168;45.478;11.060;2023-05-02T00:41:10;100448.23;;;14.20;72.17
76868;BME280;66168;45.478;11.060;2023-05-02T00:43:37;100441.55;;;14.20;71.94
76868;BME280;66168;45.478;11.060;2023-05-02T00:46:06;100436.13;;;14.22;71.90
76868;BME280;66168;45.478;11.060;2023-05-02T00:48:34;100425.30;;;14.23;71.97
76868;BME280;66168;45.478;11.060;2023-05-02T00:51:02;100421.28;;;14.23;72.03
76868;BME280;66168;45.478;11.060;2023-05-02T00:53:34;100421.48;;;14.23;72.28
76868;BME280;66168;45.478;11.060;2023-05-02T00:56:01;100421.85;;;14.23;72.36
76868;BME280;66168;45.478;11.060;2023-05-02T00:58:28;100429.09;;;14.25;72.01
76868;BME280;66168;45.478;11.060;2023-05-02T01:00:58;100439.88;;;14.27;71.61
76868;BME280;66168;45.478;11.060;2023-05-02T01:03:41;100435.92;;;14.29;71.21
76868;BME280;66168;45.478;11.060;2023-05-02T01:15:25;100444.45;;;14.35;71.41
76868;BME280;66168;45.478;11.060;2023-05-02T01:17:54;100434.15;;;14.36;71.06
76868;BME280;66168;45.478;11.060;2023-05-02T01:20:25;100427.95;;;14.37;70.99
76868;BME280;66168;45.478;11.060;2023-05-02T01:22:55;100432.96;;;14.38;70.99
76868;BME280;66168;45.478;11.060;2023-05-02T01:28:26;100426.63;;;14.39;70.97
76868;BME280;66168;45.478;11.060;2023-05-02T01:30:55;100424.23;;;14.36;71.07
76868;BME280;66168;45.478;11.060;2023-05-02T01:33:24;100417.09;;;14.35;70.96
76868;BME280;66168;45.478;11.060;2023-05-02T01:35:52;100407.81;;;14.36;70.89
76868;BME280;66168;45.478;11.060;2023-05-02T01:38:21;100408.27;;;14.38;70.90
76868;BME280;66168;45.478;11.060;2023-05-02T01:40:49;100397.04;;;14.41;70.50
76868;BME280;66168;45.478;11.060;2023-05-02T01:43:18;100390.11;;;14.42;70.40
76868;BME280;66168;45.478;11.060;2023-05-02T01:45:47;100390.61;;;14.44;70.10
76868;BME280;66168;45.478;11.060;2023-05-02T01:48:18;100391.43;;;14.43;70.10
76868;BME280;66168;45.478;11.060;2023-05-02T01:50:46;100389.99;;;14.44;70.34
76868;BME280;66168;45.478;11.060;2023-05-02T01:53:14;100402.30;;;14.45;70.63
76868;BME280;66168;45.478;11.060;2023-05-02T01:55:43;100400.16;;;14.44;70.47
76868;BME280;66168;45.478;11.060;2023-05-02T01:58:13;100403.33;;;14.43;70.30
76868;BME280;66168;45.478;11.060;2023-05-02T02:00:40;100404.48;;;14.41;70.23
76868;BME280;66168;45.478;11.060;2023-05-02T02:03:08;100402.22;;;14.38;70.09
76868;BME280;66168;45.478;11.060;2023-05-02T02:05:36;100398.85;;;14.38;70.07
76868;BME280;66168;45.478;11.060;2023-05-02T02:08:03;100398.76;;;14.39;70.30
76868;BME280;66168;45.478;11.060;2023-05-02T02:10:36;100396.79;;;14.40;70.47
76868;BME280;66168;45.478;11.060;2023-05-02T02:13:13;100394.11;;;14.39;70.23
76868;BME280;66168;45.478;11.060;2023-05-02T02:15:45;100390.62;;;14.38;70.09
76868;BME280;66168;45.478;11.060;2023-05-02T02:18:19;100389.34;;;14.39;69.92
76868;BME280;66168;45.478;11.060;2023-05-02T02:20:49;100380.40;;;14.39;69.88
76868;BME280;66168;45.478;11.060;2023-05-02T02:23:18;100377.95;;;14.39;69.69
76868;BME280;66168;45.478;11.060;2023-05-02T02:25:47;100380.75;;;14.38;69.50
76868;BME280;66168;45.478;11.060;2023-05-02T02:28:16;100379.71;;;14.39;69.89
76868;BME280;66168;45.478;11.060;2023-05-02T02:30:42;100382.84;;;14.39;70.19
76868;BME280;66168;45.478;11.060;2023-05-02T02:33:09;100383.37;;;14.41;70.41
76868;BME280;66168;45.478;11.060;2023-05-02T02:35:48;100383.54;;;14.41;70.20
76868;BME280;66168;45.478;11.060;2023-05-02T02:38:33;100380.73;;;14.40;70.17
76868;BME280;66168;45.478;11.060;2023-05-02T02:41:12;100385.93;;;14.36;70.45
76868;BME280;66168;45.478;11.060;2023-05-02T02:44:05;100377.30;;;14.34;70.31
76868;BME280;66168;45.478;11.060;2023-05-02T02:46:49;100371.48;;;14.31;70.53
76868;BME280;66168;45.478;11.060;2023-05-02T02:54:57;100388.85;;;14.31;71.25
76868;BME280;66168;45.478;11.060;2023-05-02T02:57:36;100393.55;;;14.31;71.42
76868;BME280;66168;45.478;11.060;2023-05-02T03:00:16;100390.62;;;14.30;71.32
76868;BME280;66168;45.478;11.060;2023-05-02T03:02:45;100388.56;;;14.28;71.09
76868;BME280;66168;45.478;11.060;2023-05-02T03:05:13;100387.67;;;14.27;71.04
76868;BME280;66168;45.478;11.060;2023-05-02T03:07:41;100385.69;;;14.23;71.03
76868;BME280;66168;45.478;11.060;2023-05-02T03:10:08;100391.95;;;14.20;71.30
76868;BME280;66168;45.478;11.060;2023-05-02T03:12:35;100404.77;;;14.20;71.60
76868;BME280;66168;45.478;11.060;2023-05-02T03:15:21;100409.79;;;14.16;71.73
76868;BME280;66168;45.478;11.060;2023-05-02T03:17:50;100425.42;;;14.14;71.72
76868;BME280;66168;45.478;11.060;2023-05-02T03:20:17;100427.60;;;14.10;71.40
76868;BME280;66168;45.478;11.060;2023-05-02T03:22:44;100439.29;;;14.08;71.46
76868;BME280;66168;45.478;11.060;2023-05-02T03:25:11;100439.98;;;14.08;71.37
76868;BME280;66168;45.478;11.060;2023-05-02T03:27:40;100444.38;;;14.10;71.64
76868;BME280;66168;45.478;11.060;2023-05-02T03:30:08;100450.19;;;14.12;71.76
76868;BME280;66168;45.478;11.060;2023-05-02T03:32:35;100447.23;;;14.14;71.92
76868;BME280;66168;45.478;11.060;2023-05-02T03:35:03;100442.91;;;14.17;71.97
76868;BME280;66168;45.478;11.060;2023-05-02T03:37:30;100439.05;;;14.17;71.79
76868;BME280;66168;45.478;11.060;2023-05-02T03:39:59;100433.30;;;14.18;71.47
76868;BME280;66168;45.478;11.060;2023-05-02T03:42:28;100433.13;;;14.17;71.36
76868;BME280;66168;45.478;11.060;2023-05-02T03:44:56;100427.61;;;14.17;71.11
76868;BME280;66168;45.478;11.060;2023-05-02T03:47:25;100427.35;;;14.17;71.25
76868;BME280;66168;45.478;11.060;2023-05-02T03:49:51;100429.42;;;14.17;71.54
76868;BME280;66168;45.478;11.060;2023-05-02T03:52:18;100435.14;;;14.20;71.86
76868;BME280;66168;45.478;11.060;2023-05-02T03:54:46;100437.29;;;14.20;71.90
76868;BME280;66168;45.478;11.060;2023-05-02T03:57:12;100443.25;;;14.18;72.06
76868;BME280;66168;45.478;11.060;2023-05-02T03:59:39;100447.73;;;14.18;72.21
76868;BME280;66168;45.478;11.060;2023-05-02T04:02:14;100451.42;;;14.16;72.10
76868;BME280;66168;45.478;11.060;2023-05-02T04:04:45;100454.63;;;14.11;72.36
76868;BME280;66168;45.478;11.060;2023-05-02T04:07:14;100452.61;;;14.13;72.39
76868;BME280;66168;45.478;11.060;2023-05-02T04:09:49;100451.95;;;14.09;72.47
76868;BME280;66168;45.478;11.060;2023-05-02T04:12:15;100456.57;;;14.09;72.83
76868;BME280;66168;45.478;11.060;2023-05-02T04:14:45;100458.02;;;14.12;72.81
76868;BME280;66168;45.478;11.060;2023-05-02T04:17:13;100461.97;;;14.15;72.64
76868;BME280;66168;45.478;11.060;2023-05-02T04:19:45;100460.54;;;14.18;72.29
76868;BME280;66168;45.478;11.060;2023-05-02T04:22:12;100460.66;;;14.18;72.30
76868;BME280;66168;45.478;11.060;2023-05-02T04:24:43;100463.16;;;14.20;72.23
76868;BME280;66168;45.478;11.060;2023-05-02T04:27:11;100466.95;;;14.22;72.10
76868;BME280;66168;45.478;11.060;2023-05-02T04:29:41;100471.48;;;14.23;72.38
76868;BME280;66168;45.478;11.060;2023-05-02T04:32:09;100471.48;;;14.23;72.58
76868;BME280;66168;45.478;11.060;2023-05-02T04:34:38;100476.38;;;14.21;72.63
76868;BME280;66168;45.478;11.060;2023-05-02T04:37:04;100478.76;;;14.19;72.52
76868;BME280;66168;45.478;11.060;2023-05-02T04:39:33;100482.00;;;14.18;72.42
76868;BME280;66168;45.478;11.060;2023-05-02T04:42:03;100480.52;;;14.17;72.28
76868;BME280;66168;45.478;11.060;2023-05-02T04:44:35;100483.84;;;14.16;72.25
76868;BME280;66168;45.478;11.060;2023-05-02T04:47:01;100488.38;;;14.18;72.34
76868;BME280;66168;45.478;11.060;2023-05-02T04:49:30;100491.02;;;14.21;72.42
76868;BME280;66168;45.478;11.060;2023-05-02T04:51:58;100489.55;;;14.27;72.48
76868;BME280;66168;45.478;11.060;2023-05-02T04:54:24;100493.68;;;14.30;72.35
76868;BME280;66168;45.478;11.060;2023-05-02T04:56:51;100497.52;;;14.34;72.45
76868;BME280;66168;45.478;11.060;2023-05-02T04:59:19;100505.93;;;14.38;72.36
76868;BME280;66168;45.478;11.060;2023-05-02T05:01:45;100512.36;;;14.42;72.28
76868;BME280;66168;45.478;11.060;2023-05-02T05:04:12;100510.46;;;14.42;71.97
76868;BME280;66168;45.478;11.060;2023-05-02T05:06:39;100513.65;;;14.44;71.98
76868;BME280;66168;45.478;11.060;2023-05-02T05:09:07;100518.81;;;14.43;72.20
76868;BME280;66168;45.478;11.060;2023-05-02T05:11:34;100522.27;;;14.42;72.31
76868;BME280;66168;45.478;11.060;2023-05-02T05:14:02;100525.91;;;14.42;71.98
76868;BME280;66168;45.478;11.060;2023-05-02T05:16:32;100524.97;;;14.41;71.78
76868;BME280;66168;45.478;11.060;2023-05-02T05:18:59;100531.05;;;14.41;71.55
76868;BME280;66168;45.478;11.060;2023-05-02T05:21:26;100530.52;;;14.39;71.49
76868;BME280;66168;45.478;11.060;2023-05-02T05:23:53;100531.50;;;14.40;71.39
76868;BME280;66168;45.478;11.060;2023-05-02T05:26:24;100532.05;;;14.44;71.41
76868;BME280;66168;45.478;11.060;2023-05-02T05:28:53;100532.74;;;14.48;71.58
76868;BME280;66168;45.478;11.060;2023-05-02T05:31:21;100536.46;;;14.52;71.48
76868;BME280;66168;45.478;11.060;2023-05-02T05:33:53;100539.42;;;14.58;71.39
76868;BME280;66168;45.478;11.060;2023-05-02T05:36:21;100544.67;;;14.62;71.24
76868;BME280;66168;45.478;11.060;2023-05-02T05:38:49;100543.02;;;14.68;71.11
76868;BME280;66168;45.478;11.060;2023-05-02T05:41:17;100543.19;;;14.71;70.86
76868;BME280;66168;45.478;11.060;2023-05-02T05:43:47;100543.73;;;14.75;70.71
76868;BME280;66168;45.478;11.060;2023-05-02T05:46:14;100545.84;;;14.79;70.72
76868;BME280;66168;45.478;11.060;2023-05-02T05:48:41;100544.31;;;14.85;70.88
76868;BME280;66168;45.478;11.060;2023-05-02T05:51:08;100539.66;;;14.93;71.11
76868;BME280;66168;45.478;11.060;2023-05-02T05:53:35;100535.62;;;14.99;71.21
76868;BME280;66168;45.478;11.060;2023-05-02T05:56:12;100535.53;;;15.05;71.31
76868;BME280;66168;45.478;11.060;2023-05-02T05:58:48;100537.77;;;15.10;71.26
76868;BME280;66168;45.478;11.060;2023-05-02T06:01:15;100541.42;;;15.14;71.09
76868;BME280;66168;45.478;11.060;2023-05-02T06:03:42;100542.61;;;15.17;70.95
76868;BME280;66168;45.478;11.060;2023-05-02T06:06:09;100539.02;;;15.21;70.81
76868;BME280;66168;45.478;11.060;2023-05-02T06:08:36;100540.05;;;15.22;70.76
76868;BME280;66168;45.478;11.060;2023-05-02T06:11:07;100543.88;;;15.24;70.70
76868;BME280;66168;45.478;11.060;2023-05-02T06:13:34;100554.10;;;15.27;70.58
76868;BME280;66168;45.478;11.060;2023-05-02T06:16:01;100557.94;;;15.28;70.63
76868;BME280;66168;45.478;11.060;2023-05-02T06:18:28;100563.48;;;15.29;70.78
76868;BME280;66168;45.478;11.060;2023-05-02T06:20:55;100567.65;;;15.31;70.87
76868;BME280;66168;45.478;11.060;2023-05-02T06:23:22;100572.59;;;15.34;70.90
76868;BME280;66168;45.478;11.060;2023-05-02T06:25:49;100575.18;;;15.39;70.68
76868;BME280;66168;45.478;11.060;2023-05-02T06:28:15;100579.23;;;15.41;70.24
76868;BME280;66168;45.478;11.060;2023-05-02T06:30:42;100583.14;;;15.38;70.19
76868;BME280;66168;45.478;11.060;2023-05-02T06:33:09;100589.45;;;15.40;70.65
76868;BME280;66168;45.478;11.060;2023-05-02T06:35:37;100590.19;;;15.45;70.63
76868;BME280;66168;45.478;11.060;2023-05-02T06:38:04;100593.65;;;15.47;70.64
76868;BME280;66168;45.478;11.060;2023-05-02T06:40:33;100595.83;;;15.46;70.88
76868;BME280;66168;45.478;11.060;2023-05-02T06:43:01;100596.20;;;15.42;70.82
76868;BME280;66168;45.478;11.060;2023-05-02T06:45:28;100604.83;;;15.38;70.78
76868;BME280;66168;45.478;11.060;2023-05-02T06:47:54;100600.78;;;15.33;70.86
76868;BME280;66168;45.478;11.060;2023-05-02T06:50:21;100602.23;;;15.30;71.17
76868;BME280;66168;45.478;11.060;2023-05-02T06:52:48;100599.64;;;15.34;71.10
76868;BME280;66168;45.478;11.060;2023-05-02T06:55:14;100601.94;;;15.38;71.46
76868;BME280;66168;45.478;11.060;2023-05-02T06:57:41;100604.04;;;15.43;71.76
76868;BME280;66168;45.478;11.060;2023-05-02T07:00:09;100607.42;;;15.47;72.03
76868;BME280;66168;45.478;11.060;2023-05-02T07:02:36;100607.56;;;15.52;72.28
76868;BME280;66168;45.478;11.060;2023-05-02T07:05:03;100609.29;;;15.57;72.20
76868;BME280;66168;45.478;11.060;2023-05-02T07:07:30;100605.03;;;15.63;72.18
76868;BME280;66168;45.478;11.060;2023-05-02T07:09:56;100606.48;;;15.69;71.61
76868;BME280;66168;45.478;11.060;2023-05-02T07:12:24;100607.10;;;15.74;71.67
76868;BME280;66168;45.478;11.060;2023-05-02T07:14:51;100603.30;;;15.80;71.65
76868;BME280;66168;45.478;11.060;2023-05-02T07:17:18;100606.52;;;15.86;71.97
76868;BME280;66168;45.478;11.060;2023-05-02T07:19:45;100599.58;;;15.93;71.59
76868;BME280;66168;45.478;11.060;2023-05-02T07:22:11;100605.89;;;15.95;72.04
76868;BME280;66168;45.478;11.060;2023-05-02T07:24:41;100605.75;;;16.01;71.82
76868;BME280;66168;45.478;11.060;2023-05-02T07:27:09;100609.45;;;16.05;71.49
76868;BME280;66168;45.478;11.060;2023-05-02T07:29:36;100606.45;;;16.08;71.12
76868;BME280;66168;45.478;11.060;2023-05-02T07:32:03;100611.77;;;16.13;70.73
76868;BME280;66168;45.478;11.060;2023-05-02T07:34:31;100613.77;;;16.16;70.82
76868;BME280;66168;45.478;11.060;2023-05-02T07:36:58;100614.73;;;16.23;71.32
76868;BME280;66168;45.478;11.060;2023-05-02T07:39:24;100613.41;;;16.31;71.16
76868;BME280;66168;45.478;11.060;2023-05-02T07:41:52;100615.67;;;16.37;71.90
76868;BME280;66168;45.478;11.060;2023-05-02T07:44:19;100618.43;;;16.44;71.96
76868;BME280;66168;45.478;11.060;2023-05-02T07:46:46;100620.94;;;16.47;72.36
76868;BME280;66168;45.478;11.060;2023-05-02T07:49:13;100622.84;;;16.50;72.12
76868;BME280;66168;45.478;11.060;2023-05-02T07:51:40;100624.67;;;16.51;72.10
76868;BME280;66168;45.478;11.060;2023-05-02T07:54:20;100624.42;;;16.51;71.98
76868;BME280;66168;45.478;11.060;2023-05-02T07:56:47;100631.09;;;16.48;72.14
76868;BME280;66168;45.478;11.060;2023-05-02T07:59:16;100631.27;;;16.44;72.47
76868;BME280;66168;45.478;11.060;2023-05-02T08:01:43;100633.81;;;16.42;72.64
76868;BME280;66168;45.478;11.060;2023-05-02T08:04:10;100638.63;;;16.34;72.14
76868;BME280;66168;45.478;11.060;2023-05-02T08:06:37;100641.56;;;16.35;72.04
76868;BME280;66168;45.478;11.060;2023-05-02T08:09:04;100642.13;;;16.38;71.71
76868;BME280;66168;45.478;11.060;2023-05-02T08:11:30;100641.66;;;16.41;71.37
76868;BME280;66168;45.478;11.060;2023-05-02T08:13:57;100647.96;;;16.44;71.19
76868;BME280;66168;45.478;11.060;2023-05-02T08:16:24;100648.16;;;16.45;71.65
76868;BME280;66168;45.478;11.060;2023-05-02T08:18:50;100651.58;;;16.49;71.86
76868;BME280;66168;45.478;11.060;2023-05-02T08:21:17;100651.40;;;16.54;72.02
76868;BME280;66168;45.478;11.060;2023-05-02T08:23:44;100653.45;;;16.60;72.05
76868;BME280;66168;45.478;11.060;2023-05-02T08:26:11;100650.39;;;16.67;71.95
76868;BME280;66168;45.478;11.060;2023-05-02T08:28:38;100649.91;;;16.75;71.45
76868;BME280;66168;45.478;11.060;2023-05-02T08:31:05;100649.71;;;16.83;70.99
76868;BME280;66168;45.478;11.060;2023-05-02T08:33:31;100651.90;;;16.91;69.98
76868;BME280;66168;45.478;11.060;2023-05-02T08:35:58;100648.52;;;16.96;69.68
76868;BME280;66168;45.478;11.060;2023-05-02T08:38:25;100648.75;;;16.99;69.26
76868;BME280;66168;45.478;11.060;2023-05-02T08:40:52;100649.86;;;17.06;69.40
76868;BME280;66168;45.478;11.060;2023-05-02T08:43:19;100657.41;;;17.14;69.85
76868;BME280;66168;45.478;11.060;2023-05-02T08:45:47;100658.45;;;17.24;69.82
76868;BME280;66168;45.478;11.060;2023-05-02T08:48:15;100664.59;;;17.32;69.78
76868;BME280;66168;45.478;11.060;2023-05-02T08:50:44;100665.59;;;17.35;69.51
76868;BME280;66168;45.478;11.060;2023-05-02T08:53:11;100667.67;;;17.33;69.26
76868;BME280;66168;45.478;11.060;2023-05-02T08:55:41;100671.34;;;17.29;68.90
76868;BME280;66168;45.478;11.060;2023-05-02T08:58:09;100679.29;;;17.30;68.78
76868;BME280;66168;45.478;11.060;2023-05-02T09:00:40;100684.74;;;17.34;68.86
76868;BME280;66168;45.478;11.060;2023-05-02T09:03:16;100686.63;;;17.37;68.94
76868;BME280;66168;45.478;11.060;2023-05-02T09:05:52;100688.05;;;17.41;69.09
76868;BME280;66168;45.478;11.060;2023-05-02T09:08:23;100687.52;;;17.40;69.24
76868;BME280;66168;45.478;11.060;2023-05-02T09:10:50;100692.34;;;17.43;69.23
76868;BME280;66168;45.478;11.060;2023-05-02T09:13:33;100694.02;;;17.43;69.11
76868;BME280;66168;45.478;11.060;2023-05-02T09:16:11;100695.96;;;17.40;69.14
76868;BME280;66168;45.478;11.060;2023-05-02T09:18:43;100698.41;;;17.32;69.45
76868;BME280;66168;45.478;11.060;2023-05-02T09:21:24;100703.96;;;17.25;70.30
76868;BME280;66168;45.478;11.060;2023-05-02T09:23:55;100709.14;;;17.21;70.74
76868;BME280;66168;45.478;11.060;2023-05-02T09:26:24;100710.84;;;17.23;71.08
76868;BME280;66168;45.478;11.060;2023-05-02T09:29:01;100716.40;;;17.32;71.04
76868;BME280;66168;45.478;11.060;2023-05-02T09:31:31;100715.35;;;17.39;70.54
76868;BME280;66168;45.478;11.060;2023-05-02T09:34:11;100716.38;;;17.46;70.00
76868;BME280;66168;45.478;11.060;2023-05-02T09:36:46;100719.65;;;17.52;69.94
76868;BME280;66168;45.478;11.060;2023-05-02T09:39:18;100719.53;;;17.56;69.81
76868;BME280;66168;45.478;11.060;2023-05-02T09:41:48;100725.94;;;17.56;70.16
76868;BME280;66168;45.478;11.060;2023-05-02T09:44:16;100727.39;;;17.59;70.35
76868;BME280;66168;45.478;11.060;2023-05-02T09:46:48;100732.87;;;17.67;69.45
76868;BME280;66168;45.478;11.060;2023-05-02T09:49:15;100733.91;;;17.76;69.30
76868;BME280;66168;45.478;11.060;2023-05-02T09:51:46;100734.91;;;17.80;68.65
76868;BME280;66168;45.478;11.060;2023-05-02T09:54:35;100733.95;;;17.78;66.20
76868;BME280;66168;45.478;11.060;2023-05-02T09:57:02;100732.27;;;17.75;66.23
76868;BME280;66168;45.478;11.060;2023-05-02T09:59:29;100730.60;;;17.77;65.51
76868;BME280;66168;45.478;11.060;2023-05-02T10:01:57;100735.25;;;17.79;65.23
76868;BME280;66168;45.478;11.060;2023-05-02T10:04:25;100733.44;;;17.82;64.54
76868;BME280;66168;45.478;11.060;2023-05-02T10:06:54;100735.45;;;17.84;64.36
76868;BME280;66168;45.478;11.060;2023-05-02T10:09:22;100740.23;;;17.88;64.62
76868;BME280;66168;45.478;11.060;2023-05-02T10:11:51;100745.93;;;17.94;64.01
76868;BME280;66168;45.478;11.060;2023-05-02T10:14:20;100734.93;;;17.95;63.23
76868;BME280;66168;45.478;11.060;2023-05-02T10:19:40;100741.64;;;18.01;63.62
76868;BME280;66168;45.478;11.060;2023-05-02T10:22:07;100739.41;;;18.07;63.52
76868;BME280;66168;45.478;11.060;2023-05-02T10:24:34;100741.48;;;18.13;63.31
76868;BME280;66168;45.478;11.060;2023-05-02T10:27:03;100741.19;;;18.16;62.78
76868;BME280;66168;45.478;11.060;2023-05-02T10:29:30;100739.45;;;18.17;62.80
76868;BME280;66168;45.478;11.060;2023-05-02T10:31:57;100744.17;;;18.20;62.76
76868;BME280;66168;45.478;11.060;2023-05-02T10:34:26;100745.70;;;18.24;62.87
76868;BME280;66168;45.478;11.060;2023-05-02T10:36:54;100746.15;;;18.29;62.82
76868;BME280;66168;45.478;11.060;2023-05-02T10:39:21;100745.59;;;18.33;62.88
76868;BME280;66168;45.478;11.060;2023-05-02T10:41:52;100751.08;;;18.36;62.30
76868;BME280;66168;45.478;11.060;2023-05-02T10:44:39;100751.41;;;18.40;62.51
76868;BME280;66168;45.478;11.060;2023-05-02T10:47:23;100748.77;;;18.42;62.03
76868;BME280;66168;45.478;11.060;2023-05-02T10:49:52;100747.45;;;18.41;61.56
76868;BME280;66168;45.478;11.060;2023-05-02T10:52:31;100745.11;;;18.37;61.43
76868;BME280;66168;45.478;11.060;2023-05-02T10:55:19;100749.34;;;18.32;60.83
76868;BME280;66168;45.478;11.060;2023-05-02T11:00:30;100743.64;;;18.27;60.55
76868;BME280;66168;45.478;11.060;2023-05-02T11:03:00;100746.50;;;18.26;59.92
76868;BME280;66168;45.478;11.060;2023-05-02T11:05:28;100748.75;;;18.22;60.06
76868;BME280;66168;45.478;11.060;2023-05-02T11:10:40;100743.39;;;18.26;60.03
76868;BME280;66168;45.478;11.060;2023-05-02T11:13:07;100739.94;;;18.29;59.98
76868;BME280;66168;45.478;11.060;2023-05-02T11:20:42;100739.60;;;18.40;58.70
76868;BME280;66168;45.478;11.060;2023-05-02T11:25:44;100743.55;;;18.49;59.21
76868;BME280;66168;45.478;11.060;2023-05-02T11:30:59;100745.18;;;18.66;58.98
76868;BME280;66168;45.478;11.060;2023-05-02T11:33:27;100747.19;;;18.68;58.28
76868;BME280;66168;45.478;11.060;2023-05-02T11:35:55;100744.91;;;18.71;58.38
76868;BME280;66168;45.478;11.060;2023-05-02T11:38:26;100743.14;;;18.79;58.65
76868;BME280;66168;45.478;11.060;2023-05-02T11:41:00;100745.39;;;18.88;58.64
76868;BME280;66168;45.478;11.060;2023-05-02T11:43:28;100738.45;;;18.95;58.40
76868;BME280;66168;45.478;11.060;2023-05-02T11:45:58;100742.31;;;18.98;58.14
76868;BME280;66168;45.478;11.060;2023-05-02T11:48:26;100740.95;;;18.98;58.18
76868;BME280;66168;45.478;11.060;2023-05-02T11:50:55;100738.26;;;18.95;57.84
76868;BME280;66168;45.478;11.060;2023-05-02T11:53:27;100741.59;;;18.89;57.44
76868;BME280;66168;45.478;11.060;2023-05-02T11:55:59;100739.21;;;18.84;57.70
76868;BME280;66168;45.478;11.060;2023-05-02T11:58:28;100745.13;;;18.83;57.95
76868;BME280;66168;45.478;11.060;2023-05-02T12:01:12;100743.54;;;18.78;57.37
76868;BME280;66168;45.478;11.060;2023-05-02T12:03:40;100743.55;;;18.73;56.99
76868;BME280;66168;45.478;11.060;2023-05-02T12:06:11;100741.02;;;18.69;56.98
76868;BME280;66168;45.478;11.060;2023-05-02T12:08:41;100741.68;;;18.70;57.28
76868;BME280;66168;45.478;11.060;2023-05-02T12:11:08;100744.27;;;18.73;57.50
76868;BME280;66168;45.478;11.060;2023-05-02T12:13:43;100743.90;;;18.78;57.38
76868;BME280;66168;45.478;11.060;2023-05-02T12:16:11;100736.76;;;18.82;56.93
76868;BME280;66168;45.478;11.060;2023-05-02T12:18:38;100735.39;;;18.83;56.43
76868;BME280;66168;45.478;11.060;2023-05-02T12:21:05;100735.38;;;18.83;56.78
76868;BME280;66168;45.478;11.060;2023-05-02T12:23:32;100733.96;;;18.84;56.78
76868;BME280;66168;45.478;11.060;2023-05-02T12:26:24;100737.31;;;18.84;56.60
76868;BME280;66168;45.478;11.060;2023-05-02T12:28:55;100740.59;;;18.84;56.75
76868;BME280;66168;45.478;11.060;2023-05-02T12:31:22;100744.52;;;18.84;56.80
76868;BME280;66168;45.478;11.060;2023-05-02T12:33:49;100746.36;;;18.84;57.04
76868;BME280;66168;45.478;11.060;2023-05-02T12:36:18;100747.23;;;18.84;57.00
76868;BME280;66168;45.478;11.060;2023-05-02T12:38:56;100748.85;;;18.87;56.79
76868;BME280;66168;45.478;11.060;2023-05-02T12:43:58;100747.89;;;18.87;56.17
76868;BME280;66168;45.478;11.060;2023-05-02T12:46:26;100748.25;;;18.86;56.05
76868;BME280;66168;45.478;11.060;2023-05-02T12:49:07;100747.02;;;18.84;56.17
76868;BME280;66168;45.478;11.060;2023-05-02T12:51:39;100750.14;;;18.86;56.35
76868;BME280;66168;45.478;11.060;2023-05-02T12:54:06;100744.95;;;18.90;56.24
76868;BME280;66168;45.478;11.060;2023-05-02T12:56:40;100751.67;;;18.93;56.10
76868;BME280;66168;45.478;11.060;2023-05-02T12:59:07;100748.23;;;18.98;56.27
76868;BME280;66168;45.478;11.060;2023-05-02T13:01:34;100747.57;;;19.03;55.79
76868;BME280;66168;45.478;11.060;2023-05-02T13:04:02;100749.08;;;19.07;55.90
76868;BME280;66168;45.478;11.060;2023-05-02T13:06:29;100750.27;;;19.11;55.67
76868;BME280;66168;45.478;11.060;2023-05-02T13:08:56;100754.17;;;19.16;55.88
76868;BME280;66168;45.478;11.060;2023-05-02T13:11:23;100752.23;;;19.19;55.77
76868;BME280;66168;45.478;11.060;2023-05-02T13:13:51;100756.05;;;19.24;55.42
76868;BME280;66168;45.478;11.060;2023-05-02T13:16:19;100757.64;;;19.22;54.60
76868;BME280;66168;45.478;11.060;2023-05-02T13:18:47;100754.14;;;19.21;54.46
76868;BME280;66168;45.478;11.060;2023-05-02T13:21:14;100757.90;;;19.16;54.89
76868;BME280;66168;45.478;11.060;2023-05-02T13:23:41;100754.77;;;19.15;55.00
76868;BME280;66168;45.478;11.060;2023-05-02T13:26:10;100753.98;;;19.20;55.24
76868;BME280;66168;45.478;11.060;2023-05-02T13:28:37;100753.19;;;19.27;55.08
76868;BME280;66168;45.478;11.060;2023-05-02T13:31:03;100751.41;;;19.26;54.84